Time;durP1;ratioP1;P1;durP2;ratioP2;P2;SDS_P1;SDS_P2;PMS_P1;PMS_P2;Temp;Humidity;BMP_temperature;BMP_pressure;BME280_temperature;BME280_humidity;BME280_pressure;Samples;Min_cycle;Max_cycle;Signal;HPM_P1;HPM_P2
2021/03/31 00:00:57;;;;;;;29.88;14.20;;;13.40;56.10;;;;;;5094886;28;20028;-73
2021/03/31 00:03:23;;;;;;;30.20;14.90;;;13.40;55.70;;;;;;5094578;28;20101;-73
2021/03/31 00:05:48;;;;;;;31.10;15.33;;;13.40;55.40;;;;;;5094795;28;20039;-73
2021/03/31 00:08:14;;;;;;;32.90;15.20;;;13.40;55.10;;;;;;5076667;28;20028;-73
2021/03/31 00:10:46;;;;;;;29.27;13.77;;;13.40;54.70;;;;;;5094594;28;20433;-73
2021/03/31 00:13:13;;;;;;;32.67;15.43;;;13.40;54.30;;;;;;5094559;28;20527;-73
2021/03/31 00:15:39;;;;;;;30.67;14.73;;;13.40;54.10;;;;;;5094594;28;20020;-73
2021/03/31 00:18:08;;;;;;;33.50;16.27;;;13.40;53.90;;;;;;5094493;28;20082;-73
2021/03/31 00:20:35;;;;;;;31.92;14.85;;;13.40;53.90;;;;;;5093424;28;20128;-73
2021/03/31 00:23:08;;;;;;;26.92;13.75;;;13.40;53.60;;;;;;5088776;28;20416;-79
2021/03/31 00:25:35;;;;;;;31.05;15.70;;;13.40;53.50;;;;;;5055482;28;20036;-79
2021/03/31 00:28:00;;;;;;;32.13;15.20;;;13.30;53.40;;;;;;5055990;28;20136;-79
2021/03/31 00:30:27;;;;;;;30.43;15.70;;;13.30;53.30;;;;;;5073849;28;20112;-79
2021/03/31 00:32:53;;;;;;;32.27;15.87;;;13.30;53.20;;;;;;5055754;28;20031;-79
2021/03/31 00:35:18;;;;;;;31.40;15.88;;;13.30;53.10;;;;;;5073790;28;20104;-79
2021/03/31 00:37:44;;;;;;;29.25;14.55;;;13.40;53.00;;;;;;5055996;28;20029;-79
2021/03/31 00:40:13;;;;;;;29.48;14.88;;;13.30;52.90;;;;;;5055921;28;20035;-79
2021/03/31 00:42:41;;;;;;;32.47;14.93;;;13.20;52.80;;;;;;5073644;28;20154;-79
2021/03/31 00:45:08;;;;;;;30.60;15.03;;;13.20;52.80;;;;;;5074060;28;20028;-79
2021/03/31 00:47:34;;;;;;;29.67;15.30;;;13.20;52.80;;;;;;5056599;28;20020;-79
2021/03/31 00:49:59;;;;;;;27.40;14.57;;;13.20;52.70;;;;;;5058999;28;20119;-79
2021/03/31 00:52:25;;;;;;;26.53;13.83;;;13.20;52.80;;;;;;5073508;28;20107;-79
2021/03/31 00:54:51;;;;;;;31.63;15.20;;;13.10;53.00;;;;;;5073584;28;20464;-79
2021/03/31 00:57:24;;;;;;;28.27;14.35;;;13.10;54.10;;;;;;5055767;28;20033;-73
2021/03/31 00:59:51;;;;;;;29.83;14.65;;;13.00;54.30;;;;;;5073146;28;20475;-73
2021/03/31 01:02:16;;;;;;;26.83;14.27;;;13.00;54.40;;;;;;5073458;28;20091;-73
2021/03/31 01:04:42;;;;;;;30.48;14.50;;;13.00;54.40;;;;;;5056056;28;20540;-73
2021/03/31 01:07:08;;;;;;;32.50;15.68;;;12.90;54.40;;;;;;5073570;28;20384;-73
2021/03/31 01:09:34;;;;;;;28.50;13.87;;;12.90;54.70;;;;;;5073447;28;20027;-73
2021/03/31 01:12:22;;;;;;;30.47;14.70;;;12.90;55.70;;;;;;5073449;28;20167;-73
2021/03/31 01:14:53;;;;;;;25.57;13.73;;;12.80;55.10;;;;;;5086564;28;20024;-73
2021/03/31 01:17:42;;;;;;;28.23;14.20;;;12.70;55.30;;;;;;5093895;28;20584;-73
2021/03/31 01:20:34;;;;;;;30.43;13.50;;;12.70;55.50;;;;;;5093686;28;20028;-73
2021/03/31 01:23:33;;;;;;;27.37;14.07;;;12.60;55.60;;;;;;5075255;28;20023;-73
2021/03/31 01:26:07;;;;;;;26.30;13.60;;;12.60;55.70;;;;;;5093160;28;20102;-73
2021/03/31 01:28:50;;;;;;;26.73;13.63;;;12.50;56.00;;;;;;5093709;28;20058;-73
2021/03/31 01:31:31;;;;;;;24.17;13.60;;;12.50;57.20;;;;;;5075599;28;20034;-73
2021/03/31 01:34:27;;;;;;;30.00;15.23;;;12.50;58.40;;;;;;5093522;28;20478;-73
2021/03/31 01:36:54;;;;;;;26.23;14.13;;;12.40;59.60;;;;;;5095233;28;20166;-73
2021/03/31 01:39:22;;;;;;;25.00;14.17;;;12.30;60.20;;;;;;5097876;28;20020;-73
2021/03/31 01:41:50;;;;;;;26.70;14.63;;;12.30;61.00;;;;;;5092695;28;20029;-73
2021/03/31 01:44:18;;;;;;;27.10;14.53;;;12.20;61.50;;;;;;5077781;28;20021;-73
2021/03/31 01:46:52;;;;;;;33.53;16.57;;;12.20;61.90;;;;;;5077050;28;20086;-73
2021/03/31 01:49:21;;;;;;;27.35;14.57;;;12.00;62.20;;;;;;5077368;28;20017;-73
2021/03/31 01:51:48;;;;;;;24.70;14.63;;;12.00;62.10;;;;;;5059277;28;20052;-73
2021/03/31 01:54:16;;;;;;;25.17;14.23;;;12.00;62.10;;;;;;5077163;28;20437;-73
2021/03/31 01:56:43;;;;;;;29.10;15.30;;;11.90;61.90;;;;;;5076684;28;20059;-73
2021/03/31 01:59:09;;;;;;;27.40;15.00;;;11.90;62.30;;;;;;5073877;28;20031;-73
2021/03/31 02:01:35;;;;;;;27.20;14.37;;;11.90;63.30;;;;;;5097279;28;20072;-73
2021/03/31 02:04:03;;;;;;;29.90;14.80;;;11.80;64.00;;;;;;5096802;28;20039;-73
2021/03/31 02:06:30;;;;;;;26.47;14.93;;;11.70;64.70;;;;;;5097120;28;20024;-73
2021/03/31 02:08:58;;;;;;;27.50;14.47;;;11.70;65.30;;;;;;5097140;28;20035;-73
2021/03/31 02:11:28;;;;;;;29.37;15.23;;;11.70;66.20;;;;;;5097294;28;20051;-72
2021/03/31 02:13:55;;;;;;;28.40;15.33;;;11.60;66.40;;;;;;5096764;28;20032;-73
2021/03/31 02:16:22;;;;;;;27.43;14.33;;;11.60;66.70;;;;;;5096853;28;20089;-73
2021/03/31 02:18:48;;;;;;;29.67;15.27;;;11.60;67.10;;;;;;5096918;28;20069;-73
2021/03/31 02:21:14;;;;;;;27.47;14.30;;;11.50;67.10;;;;;;5096814;28;20107;-73
2021/03/31 02:23:41;;;;;;;32.30;16.37;;;11.50;67.10;;;;;;5077305;28;20039;-73
2021/03/31 02:26:08;;;;;;;28.93;15.80;;;11.50;67.00;;;;;;5076319;28;20029;-73
2021/03/31 02:28:34;;;;;;;28.37;14.63;;;11.50;67.10;;;;;;5076233;28;20031;-73
2021/03/31 02:30:59;;;;;;;29.57;15.83;;;11.60;66.90;;;;;;5058183;28;20025;-73
2021/03/31 02:33:29;;;;;;;29.67;15.57;;;11.50;67.10;;;;;;5058128;28;20043;-73
2021/03/31 02:35:55;;;;;;;27.57;16.07;;;11.40;67.60;;;;;;5076045;28;20021;-73
2021/03/31 02:38:22;;;;;;;27.33;15.50;;;11.40;68.10;;;;;;5076201;28;20039;-73
2021/03/31 02:40:49;;;;;;;29.00;15.87;;;11.40;68.60;;;;;;5075763;28;20094;-73
2021/03/31 02:43:16;;;;;;;27.10;14.90;;;11.30;68.90;;;;;;5076228;28;20119;-73
2021/03/31 02:45:50;;;;;;;29.07;15.40;;;11.30;68.90;;;;;;5076178;28;20020;-73
2021/03/31 02:48:17;;;;;;;31.83;16.05;;;11.20;68.80;;;;;;5075430;28;20083;-73
2021/03/31 02:50:45;;;;;;;28.53;15.67;;;11.20;68.80;;;;;;5080255;28;20032;-73
2021/03/31 02:53:13;;;;;;;28.83;14.57;;;11.00;68.10;;;;;;5079955;28;20059;-73
2021/03/31 02:55:39;;;;;;;28.73;15.50;;;11.10;67.80;;;;;;5061720;28;20490;-73
2021/03/31 02:58:08;;;;;;;30.57;16.93;;;11.00;67.80;;;;;;5096296;28;20031;-73
2021/03/31 03:00:34;;;;;;;30.03;14.97;;;11.00;67.80;;;;;;5096192;28;20106;-73
2021/03/31 03:03:01;;;;;;;29.00;16.63;;;10.90;67.80;;;;;;5077749;28;20129;-72
2021/03/31 03:05:27;;;;;;;27.97;14.80;;;10.90;68.20;;;;;;5095920;28;20103;-73
2021/03/31 03:07:53;;;;;;;30.10;16.70;;;10.90;68.30;;;;;;5095754;28;20114;-73
2021/03/31 03:10:19;;;;;;;29.97;17.13;;;11.00;68.90;;;;;;5095744;28;20039;-73
2021/03/31 03:12:51;;;;;;;27.73;16.47;;;10.80;69.80;;;;;;5095357;28;20114;-73
2021/03/31 03:15:19;;;;;;;30.07;16.00;;;10.80;70.60;;;;;;5077383;28;20047;-79
2021/03/31 03:17:46;;;;;;;28.50;17.10;;;10.90;71.10;;;;;;5095563;28;20024;-78
2021/03/31 03:20:13;;;;;;;29.40;16.53;;;10.80;71.40;;;;;;5095592;28;20029;-78
2021/03/31 03:22:43;;;;;;;30.57;17.07;;;10.80;71.50;;;;;;5095607;28;20545;-78
2021/03/31 03:25:10;;;;;;;30.73;16.50;;;10.80;71.60;;;;;;5077702;28;20434;-79
2021/03/31 03:27:40;;;;;;;37.63;17.27;;;10.70;71.80;;;;;;5095621;28;20028;-79
2021/03/31 03:30:09;;;;;;;28.33;16.23;;;10.70;72.10;;;;;;5095531;28;20119;-79
2021/03/31 03:32:35;;;;;;;31.40;16.47;;;10.70;72.20;;;;;;5077103;28;20085;-79
2021/03/31 03:35:02;;;;;;;30.40;17.13;;;10.60;72.30;;;;;;5077129;28;20386;-79
2021/03/31 03:37:28;;;;;;;30.40;17.47;;;10.60;72.40;;;;;;5077410;28;20024;-79
2021/03/31 03:39:54;;;;;;;32.90;17.60;;;10.60;72.70;;;;;;5077124;28;20046;-79
2021/03/31 03:42:19;;;;;;;29.47;17.37;;;10.50;72.60;;;;;;5095183;28;20472;-79
2021/03/31 03:44:45;;;;;;;33.70;18.63;;;10.50;72.90;;;;;;5075021;28;20028;-79
2021/03/31 03:47:11;;;;;;;34.47;18.47;;;10.50;72.60;;;;;;5060122;28;20036;-79
2021/03/31 03:49:39;;;;;;;40.73;18.57;;;10.50;72.10;;;;;;5060205;28;20028;-79
2021/03/31 03:52:06;;;;;;;31.03;17.00;;;10.40;71.90;;;;;;5076415;28;20020;-79
2021/03/31 03:54:32;;;;;;;35.60;17.20;;;10.40;71.60;;;;;;5094850;28;20048;-79
2021/03/31 03:56:58;;;;;;;31.53;18.07;;;10.30;71.50;;;;;;5094765;28;20028;-79
2021/03/31 03:59:27;;;;;;;30.70;17.57;;;10.30;71.70;;;;;;5093877;28;20479;-79
2021/03/31 04:01:53;;;;;;;33.07;19.77;;;10.30;71.60;;;;;;5090459;28;20063;-78
2021/03/31 04:04:19;;;;;;;31.63;17.77;;;10.30;71.50;;;;;;5076698;28;20028;-79
2021/03/31 04:06:45;;;;;;;33.60;18.60;;;10.30;71.70;;;;;;5095053;28;20020;-79
2021/03/31 04:09:12;;;;;;;35.40;18.07;;;10.20;72.20;;;;;;5094574;28;20028;-80
2021/03/31 04:11:40;;;;;;;34.57;18.20;;;10.20;71.20;;;;;;5076427;28;20103;-79
2021/03/31 04:14:07;;;;;;;32.60;17.80;;;10.20;71.00;;;;;;5059831;28;20476;-79
2021/03/31 04:16:34;;;;;;;28.43;17.10;;;10.10;70.90;;;;;;5076437;28;20046;-79
2021/03/31 04:19:07;;;;;;;29.97;16.87;;;10.10;71.00;;;;;;5076297;28;20017;-79
2021/03/31 04:21:34;;;;;;;29.27;15.63;;;10.00;71.10;;;;;;5076181;28;20110;-79
2021/03/31 04:24:00;;;;;;;34.07;18.50;;;9.90;71.10;;;;;;5094595;28;20030;-79
2021/03/31 04:26:28;;;;;;;32.00;17.03;;;9.90;71.00;;;;;;5094153;28;20065;-79
2021/03/31 04:28:54;;;;;;;31.90;17.37;;;9.80;71.30;;;;;;5094481;28;20506;-79
2021/03/31 04:31:22;;;;;;;31.07;17.50;;;9.70;71.60;;;;;;5059534;28;20058;-79
2021/03/31 04:33:49;;;;;;;32.60;17.87;;;9.70;71.80;;;;;;5094195;28;20024;-79
2021/03/31 04:36:15;;;;;;;29.03;17.70;;;9.70;72.00;;;;;;5094154;28;20459;-79
2021/03/31 04:38:50;;;;;;;30.53;17.47;;;9.60;72.30;;;;;;5094025;28;20031;-79
2021/03/31 04:41:17;;;;;;;32.83;17.60;;;9.70;72.70;;;;;;5093091;28;20471;-79
2021/03/31 04:43:43;;;;;;;30.40;16.73;;;9.60;72.70;;;;;;5094352;28;20106;-79
2021/03/31 04:46:08;;;;;;;33.03;16.93;;;9.60;72.70;;;;;;5076307;28;20078;-79
2021/03/31 04:48:38;;;;;;;28.77;16.80;;;9.60;72.70;;;;;;5093981;28;20032;-78
2021/03/31 04:51:05;;;;;;;32.97;18.10;;;9.50;72.70;;;;;;5075796;28;20467;-79
2021/03/31 04:53:30;;;;;;;32.43;17.93;;;9.50;72.70;;;;;;5059013;28;20031;-79
2021/03/31 04:55:56;;;;;;;32.70;17.73;;;9.50;72.60;;;;;;5059062;28;20020;-79
2021/03/31 04:58:22;;;;;;;35.50;17.80;;;9.40;72.70;;;;;;5059097;28;20020;-79
2021/03/31 05:00:48;;;;;;;31.83;17.63;;;9.40;72.90;;;;;;5093775;28;20035;-79
2021/03/31 05:03:14;;;;;;;30.20;17.47;;;9.40;73.10;;;;;;5093506;28;20511;-79
2021/03/31 05:05:39;;;;;;;32.73;18.80;;;9.30;73.10;;;;;;5075575;28;20028;-79
2021/03/31 05:08:06;;;;;;;33.77;18.57;;;9.30;73.10;;;;;;5093712;28;20031;-79
2021/03/31 05:10:32;;;;;;;34.67;18.80;;;9.30;73.10;;;;;;5093587;28;20108;-79
2021/03/31 05:12:57;;;;;;;36.10;18.67;;;9.30;73.10;;;;;;5093616;28;20474;-79
2021/03/31 05:15:23;;;;;;;31.90;18.07;;;9.20;73.00;;;;;;5093586;28;20028;-79
2021/03/31 05:17:48;;;;;;;32.03;17.93;;;9.20;72.90;;;;;;5075491;28;20085;-79
2021/03/31 05:20:15;;;;;;;34.57;19.00;;;9.20;72.90;;;;;;5093441;28;20099;-79
2021/03/31 05:22:40;;;;;;;35.07;19.20;;;9.20;73.00;;;;;;5093376;28;20028;-78
2021/03/31 05:25:07;;;;;;;32.13;18.43;;;9.20;73.10;;;;;;5075300;28;20081;-79
2021/03/31 05:27:33;;;;;;;35.87;18.37;;;9.20;73.20;;;;;;5093262;28;20471;-79
2021/03/31 05:30:00;;;;;;;35.87;19.23;;;9.20;73.20;;;;;;5075626;28;20115;-78
2021/03/31 05:32:25;;;;;;;33.67;18.77;;;9.20;73.40;;;;;;5058511;28;20028;-78
2021/03/31 05:34:52;;;;;;;37.23;19.67;;;9.20;73.50;;;;;;5093560;28;20077;-80
2021/03/31 05:37:17;;;;;;;29.37;17.30;;;9.30;74.30;;;;;;5075167;28;20119;-79
2021/03/31 05:39:43;;;;;;;32.50;17.33;;;9.30;73.50;;;;;;5075515;28;20075;-79
2021/03/31 05:42:09;;;;;;;32.73;17.53;;;9.20;73.50;;;;;;5093283;28;20333;-79
2021/03/31 05:44:36;;;;;;;35.23;18.37;;;9.30;73.30;;;;;;5093363;28;20047;-79
2021/03/31 05:47:03;;;;;;;31.20;18.33;;;9.30;73.30;;;;;;5075449;28;20032;-79
2021/03/31 05:49:30;;;;;;;31.23;18.07;;;9.30;73.50;;;;;;5075186;28;20046;-78
2021/03/31 05:51:57;;;;;;;33.40;19.37;;;9.30;73.70;;;;;;5058291;28;20028;-79
2021/03/31 05:54:24;;;;;;;32.27;18.27;;;9.30;74.10;;;;;;5074935;28;20055;-79
2021/03/31 05:56:52;;;;;;;35.47;20.23;;;9.30;74.40;;;;;;5074728;28;20016;-79
2021/03/31 05:59:18;;;;;;;36.03;19.03;;;9.40;74.70;;;;;;5093158;28;20012;-79
2021/03/31 06:01:45;;;;;;;32.50;18.50;;;9.40;74.60;;;;;;5090738;28;20028;-78
2021/03/31 06:04:11;;;;;;;34.53;20.03;;;9.50;74.50;;;;;;5058175;28;20051;-78
2021/03/31 06:06:37;;;;;;;39.07;18.70;;;9.50;74.30;;;;;;5074980;28;20048;-79
2021/03/31 06:09:07;;;;;;;31.93;18.00;;;9.50;74.00;;;;;;5092713;28;20039;-79
2021/03/31 06:11:51;;;;;;;35.73;18.57;;;9.50;73.70;;;;;;5074375;28;20089;-79
2021/03/31 06:14:36;;;;;;;34.10;18.93;;;9.60;73.50;;;;;;5071440;28;20043;-79
2021/03/31 06:17:11;;;;;;;33.63;17.33;;;9.60;73.20;;;;;;5088784;28;20281;-79
2021/03/31 06:19:42;;;;;;;30.20;17.67;;;9.70;73.70;;;;;;5072591;28;20030;-79
2021/03/31 06:22:50;;;;;;;32.60;18.73;;;9.70;72.80;;;;;;5092178;28;20052;-79
2021/03/31 06:25:24;;;;;;;30.97;17.67;;;9.80;72.70;;;;;;5076955;28;20093;-80
2021/03/31 06:27:54;;;;;;;34.17;18.20;;;9.80;72.50;;;;;;5095869;28;20019;-79
2021/03/31 06:30:24;;;;;;;36.50;19.23;;;9.90;72.30;;;;;;5095081;28;20028;-79
2021/03/31 06:32:54;;;;;;;30.53;18.17;;;9.80;72.10;;;;;;5077558;28;20462;-79
2021/03/31 06:35:24;;;;;;;37.00;18.50;;;9.90;72.10;;;;;;5095813;28;20588;-79
2021/03/31 06:37:50;;;;;;;35.70;19.47;;;9.90;72.00;;;;;;5095340;28;20097;-79
2021/03/31 06:40:46;;;;;;;34.73;19.03;;;10.00;71.90;;;;;;5077726;28;20024;-79
2021/03/31 06:43:23;;;;;;;35.37;19.60;;;10.00;71.70;;;;;;5070341;28;20032;-79
2021/03/31 06:45:56;;;;;;;30.63;17.17;;;10.00;71.60;;;;;;5057792;28;20097;-79
2021/03/31 06:48:24;;;;;;;35.40;20.02;;;10.10;71.50;;;;;;5077683;28;20056;-79
2021/03/31 06:50:50;;;;;;;31.43;18.23;;;10.20;71.50;;;;;;5085475;28;20044;-79
2021/03/31 06:53:26;;;;;;;36.83;18.63;;;10.20;71.50;;;;;;5059120;28;20533;-79
2021/03/31 06:56:05;;;;;;;31.07;18.07;;;10.20;71.50;;;;;;5095052;28;20032;-79
2021/03/31 06:58:32;;;;;;;36.00;19.33;;;10.30;71.60;;;;;;5076925;28;20028;-79
2021/03/31 07:00:58;;;;;;;32.60;18.70;;;10.30;71.50;;;;;;5094206;28;20028;-80
2021/03/31 07:03:24;;;;;;;31.77;18.87;;;10.40;71.40;;;;;;5095331;28;20063;-79
2021/03/31 07:05:50;;;;;;;33.60;18.70;;;10.40;71.20;;;;;;5095469;28;20046;-79
2021/03/31 07:08:17;;;;;;;29.57;17.83;;;10.40;71.00;;;;;;5095641;28;20032;-80
2021/03/31 07:10:50;;;;;;;28.93;16.97;;;10.50;70.90;;;;;;5060693;28;20028;-79
2021/03/31 07:13:33;;;;;;;35.03;17.10;;;10.60;70.60;;;;;;5093785;28;20108;-79
2021/03/31 07:16:01;;;;;;;27.37;16.03;;;10.70;70.30;;;;;;5095367;28;20020;-79
2021/03/31 07:18:28;;;;;;;29.33;16.30;;;10.70;69.90;;;;;;5060761;28;20383;-79
2021/03/31 07:20:54;;;;;;;27.50;15.63;;;10.90;69.40;;;;;;5060895;28;20031;-79
2021/03/31 07:23:22;;;;;;;26.07;14.40;;;10.80;68.90;;;;;;5095860;28;20020;-79
2021/03/31 07:25:52;;;;;;;23.80;14.73;;;10.90;68.50;;;;;;5077700;28;20031;-80
2021/03/31 07:28:23;;;;;;;27.10;14.57;;;11.00;68.20;;;;;;5095277;28;20032;-79
2021/03/31 07:30:49;;;;;;;27.20;15.30;;;11.10;67.80;;;;;;5077430;28;20036;-79
2021/03/31 07:33:31;;;;;;;29.13;15.70;;;11.20;67.60;;;;;;5043806;28;20337;-79
2021/03/31 07:35:57;;;;;;;26.73;15.07;;;11.20;67.20;;;;;;5095054;28;20052;-79
2021/03/31 07:38:25;;;;;;;23.40;14.90;;;11.30;66.90;;;;;;5076411;28;20048;-72
2021/03/31 07:40:52;;;;;;;25.47;14.93;;;11.40;66.70;;;;;;5075983;28;20016;-73
2021/03/31 07:43:36;;;;;;;23.43;14.67;;;11.40;66.30;;;;;;5089525;28;20107;-72
2021/03/31 07:46:10;;;;;;;27.17;15.07;;;11.50;66.00;;;;;;5073394;28;20020;-72
2021/03/31 07:48:37;;;;;;;24.13;14.60;;;11.60;65.70;;;;;;5095008;28;20028;-73
2021/03/31 07:51:18;;;;;;;26.93;14.27;;;11.70;65.50;;;;;;5059949;28;20040;-72
2021/03/31 07:53:45;;;;;;;26.77;15.80;;;11.80;65.20;;;;;;5094721;28;20020;-72
2021/03/31 07:56:27;;;;;;;28.20;15.73;;;11.90;65.10;;;;;;5076368;28;20032;-72
2021/03/31 07:59:01;;;;;;;25.10;14.60;;;12.00;64.70;;;;;;5076567;28;20517;-73
2021/03/31 08:01:45;;;;;;;25.83;15.17;;;12.10;64.40;;;;;;5076738;28;20082;-73
2021/03/31 08:04:12;;;;;;;24.92;14.68;;;12.20;64.20;;;;;;5074655;28;20392;-73
2021/03/31 08:06:39;;;;;;;25.47;14.63;;;12.30;64.10;;;;;;5076928;28;20085;-73
2021/03/31 08:09:07;;;;;;;24.73;15.05;;;12.40;64.00;;;;;;5095078;28;20020;-73
2021/03/31 08:11:39;;;;;;;26.63;14.38;;;12.50;63.90;;;;;;5094850;28;20020;-73
2021/03/31 08:14:16;;;;;;;26.65;15.15;;;12.60;63.70;;;;;;5074150;28;20035;-73
2021/03/31 08:16:46;;;;;;;20.80;13.32;;;12.60;63.60;;;;;;5074426;28;20510;-73
2021/03/31 08:19:15;;;;;;;22.35;13.77;;;12.70;63.50;;;;;;5074591;28;20434;-73
2021/03/31 08:21:48;;;;;;;25.13;14.60;;;12.80;63.30;;;;;;5074091;28;20464;-73
2021/03/31 08:24:15;;;;;;;23.25;13.70;;;12.90;63.30;;;;;;5063747;28;20394;-73
2021/03/31 08:26:43;;;;;;;21.92;13.73;;;13.00;63.30;;;;;;5094632;28;20036;-73
2021/03/31 08:29:18;;;;;;;21.67;13.60;;;13.00;63.00;;;;;;5094336;28;20447;-73
2021/03/31 08:31:56;;;;;;;19.88;12.50;;;13.10;62.90;;;;;;5076463;28;20512;-73
2021/03/31 08:34:23;;;;;;;24.67;13.98;;;13.20;62.80;;;;;;5093120;28;20085;-73
2021/03/31 08:36:50;;;;;;;24.65;12.60;;;13.30;62.70;;;;;;5039637;28;20021;-73
2021/03/31 08:39:16;;;;;;;28.05;14.15;;;13.40;62.60;;;;;;5075692;28;20880;-73
2021/03/31 08:41:44;;;;;;;19.27;13.15;;;13.50;62.30;;;;;;5094294;28;20056;-73
2021/03/31 08:44:24;;;;;;;24.73;13.30;;;13.60;62.00;;;;;;5090734;28;20038;-73
2021/03/31 08:46:51;;;;;;;25.45;12.60;;;13.60;62.00;;;;;;5071228;28;20192;-73
2021/03/31 08:49:24;;;;;;;21.38;13.13;;;13.70;61.90;;;;;;5072901;28;20032;-73
2021/03/31 08:51:53;;;;;;;24.15;13.63;;;13.80;61.80;;;;;;5058072;28;20072;-73
2021/03/31 08:54:48;;;;;;;19.77;12.02;;;13.90;61.70;;;;;;5092960;28;20066;-73
2021/03/31 08:57:19;;;;;;;19.98;12.45;;;14.00;61.50;;;;;;5074795;28;20035;-73
2021/03/31 08:59:49;;;;;;;25.63;14.88;;;14.10;61.30;;;;;;5081767;28;20107;-73
2021/03/31 09:02:18;;;;;;;21.15;12.13;;;14.30;61.10;;;;;;5075196;28;20069;-73
2021/03/31 09:04:44;;;;;;;23.88;11.77;;;14.40;61.00;;;;;;5093382;28;20081;-73
2021/03/31 09:07:11;;;;;;;21.73;12.60;;;14.50;60.80;;;;;;5093820;28;20025;-73
2021/03/31 09:09:39;;;;;;;20.65;11.85;;;14.60;60.70;;;;;;5075957;28;20451;-73
2021/03/31 09:12:10;;;;;;;21.48;12.40;;;14.70;60.40;;;;;;5093697;28;20054;-74
2021/03/31 09:14:38;;;;;;;23.05;12.85;;;14.80;60.00;;;;;;5075064;28;20066;-74
2021/03/31 09:17:06;;;;;;;19.17;12.60;;;15.00;59.60;;;;;;5075348;28;20020;-74
2021/03/31 09:19:40;;;;;;;23.77;11.95;;;15.10;59.20;;;;;;5093246;28;20028;-75
2021/03/31 09:22:11;;;;;;;;;;;15.20;58.80;;;;;;5093202;28;20028;-75
2021/03/31 09:24:47;;;;;;;22.73;11.50;;;15.30;58.50;;;;;;5093020;28;19911;-75
2021/03/31 09:27:15;;;;;;;25.00;12.57;;;15.50;58.50;;;;;;5093457;28;20111;-75
2021/03/31 09:29:45;;;;;;;22.70;12.07;;;15.60;58.20;;;;;;5093412;28;20069;-75
2021/03/31 09:35:13;;;;;;;19.98;12.25;;;15.80;57.70;;;;;;5079996;28;20028;-75
2021/03/31 09:37:43;;;;;;;;;;;16.00;57.60;;;;;;5075303;28;20016;-75
2021/03/31 09:40:10;;;;;;;16.83;10.23;;;16.10;57.80;;;;;;5075088;28;19908;-75
2021/03/31 09:42:38;;;;;;;21.05;11.40;;;16.20;57.70;;;;;;5093159;28;20081;-75
2021/03/31 09:45:08;;;;;;;21.80;12.90;;;16.30;57.00;;;;;;5092994;28;20036;-75
2021/03/31 09:47:35;;;;;;;21.13;12.88;;;16.50;56.60;;;;;;5093213;28;20111;-75
2021/03/31 09:50:06;;;;;;;20.05;11.48;;;16.60;56.30;;;;;;5075103;28;20194;-74
2021/03/31 09:52:32;;;;;;;23.90;12.77;;;16.70;55.90;;;;;;5092975;28;20490;-75
2021/03/31 09:55:07;;;;;;;23.75;13.48;;;16.80;55.40;;;;;;5074836;28;20033;-74
2021/03/31 09:57:37;;;;;;;22.58;11.95;;;17.00;54.60;;;;;;5094265;28;20024;-80
2021/03/31 10:00:11;;;;;;;22.15;11.48;;;17.10;54.20;;;;;;5097149;28;20028;-83
2021/03/31 10:02:39;;;;;;;18.48;11.80;;;17.30;53.90;;;;;;5076678;28;20045;-82
2021/03/31 10:05:08;;;;;;;22.30;12.35;;;17.40;53.50;;;;;;5058749;28;20422;-81
2021/03/31 10:07:34;;;;;;;20.20;12.57;;;17.60;53.10;;;;;;5058834;28;20078;-80
2021/03/31 10:09:59;;;;;;;20.65;12.43;;;17.80;52.60;;;;;;5076314;28;20033;-81
2021/03/31 10:12:33;;;;;;;18.80;12.10;;;18.00;52.30;;;;;;5076235;28;20085;-81
2021/03/31 10:15:00;;;;;;;;;;;18.30;52.00;;;;;;5076688;28;20033;-81
2021/03/31 10:17:28;;;;;;;21.17;11.43;;;18.80;51.10;;;;;;5069807;28;19908;-81
2021/03/31 10:20:05;;;;;;;20.67;12.05;;;19.20;50.90;;;;;;5078363;28;20042;-82
2021/03/31 10:22:31;;;;;;;16.23;10.25;;;19.70;49.80;;;;;;5096795;28;20119;-81
2021/03/31 10:24:57;;;;;;;18.15;11.43;;;20.40;49.60;;;;;;5096537;28;20105;-82
2021/03/31 10:27:41;;;;;;;16.25;10.70;;;21.20;49.00;;;;;;5058031;28;20025;-75
2021/03/31 10:30:08;;;;;;;17.15;9.85;;;22.20;47.90;;;;;;5076550;28;20024;-76
2021/03/31 10:32:34;;;;;;;13.40;9.63;;;23.00;47.20;;;;;;5095818;28;20036;-77
2021/03/31 10:35:00;;;;;;;15.48;10.13;;;23.90;46.50;;;;;;5096431;28;20020;-77
2021/03/31 10:37:39;;;;;;;15.32;10.82;;;24.80;44.80;;;;;;5096565;28;20035;-76
2021/03/31 10:53:13;;;;;;;17.10;10.93;;;26.10;38.20;;;;;;5096363;28;20040;-76
2021/03/31 10:55:45;;;;;;;15.75;10.13;;;26.00;37.60;;;;;;5077621;28;20477;-77
2021/03/31 10:58:11;;;;;;;18.05;11.52;;;26.10;37.30;;;;;;5094934;28;20066;-76
2021/03/31 11:00:37;;;;;;;18.52;11.48;;;26.20;36.70;;;;;;5095196;28;20020;-77
2021/03/31 11:03:03;;;;;;;14.60;10.93;;;26.20;36.20;;;;;;5093788;28;20056;-77
2021/03/31 11:05:29;;;;;;;17.02;11.98;;;26.30;36.00;;;;;;5084736;28;20368;-77
2021/03/31 11:07:55;;;;;;;16.55;12.23;;;26.30;35.70;;;;;;5055066;28;20028;-76
2021/03/31 11:10:21;;;;;;;14.98;10.98;;;26.40;35.60;;;;;;5070418;28;20415;-77
2021/03/31 11:12:47;;;;;;;16.23;11.27;;;26.50;35.50;;;;;;5057584;28;20116;-74
2021/03/31 11:15:15;;;;;;;18.25;11.32;;;26.60;35.40;;;;;;5057317;28;20025;-74
2021/03/31 11:27:56;;;;;;;17.80;11.52;;;27.30;33.70;;;;;;5057348;28;20388;-75
2021/03/31 11:30:22;;;;;;;16.50;11.68;;;27.40;33.10;;;;;;5074776;28;20036;-76
2021/03/31 11:32:48;;;;;;;17.13;10.93;;;27.60;32.70;;;;;;5056581;28;20033;-76
2021/03/31 11:35:14;;;;;;;15.45;11.57;;;27.60;32.00;;;;;;5053485;28;20052;-76
2021/03/31 11:37:39;;;;;;;19.05;11.70;;;27.80;31.80;;;;;;5055079;28;20035;-76
2021/03/31 11:40:08;;;;;;;17.48;11.88;;;27.90;31.80;;;;;;5036882;28;20033;-76
2021/03/31 11:42:33;;;;;;;15.07;10.98;;;28.00;31.80;;;;;;5024927;28;20020;-76
2021/03/31 11:44:59;;;;;;;15.07;10.57;;;28.10;31.80;;;;;;5056208;28;20472;-75
2021/03/31 11:47:25;;;;;;;16.42;10.95;;;28.30;31.60;;;;;;5056224;28;20078;-76
2021/03/31 11:49:50;;;;;;;14.85;10.00;;;28.50;31.40;;;;;;5074282;28;20039;-76
2021/03/31 11:52:16;;;;;;;15.60;11.35;;;28.70;31.30;;;;;;5056797;28;20031;-76
2021/03/31 11:54:42;;;;;;;16.05;11.35;;;28.90;31.20;;;;;;5074405;28;20108;-76
2021/03/31 11:57:07;;;;;;;16.75;11.38;;;29.00;31.10;;;;;;5074103;28;20032;-75
2021/03/31 11:59:33;;;;;;;15.50;11.65;;;29.10;31.10;;;;;;5074570;28;20107;-75
2021/03/31 12:01:59;;;;;;;15.85;9.73;;;29.30;31.20;;;;;;5061158;28;20036;-75
2021/03/31 12:04:24;;;;;;;14.32;10.02;;;29.60;31.00;;;;;;5092161;28;20097;-76
2021/03/31 12:06:50;;;;;;;18.10;11.43;;;29.80;30.60;;;;;;5059828;28;20040;-76
2021/03/31 12:09:16;;;;;;;16.80;11.75;;;30.10;30.40;;;;;;5076747;28;20039;-75
2021/03/31 12:11:41;;;;;;;14.45;10.50;;;30.30;30.50;;;;;;5094297;28;20028;-75
2021/03/31 12:14:07;;;;;;;15.35;11.10;;;30.40;30.00;;;;;;5094388;28;20060;-76
2021/03/31 12:16:33;;;;;;;14.32;11.18;;;30.60;29.90;;;;;;5075611;28;20429;-76
2021/03/31 12:18:58;;;;;;;15.75;10.93;;;30.70;29.80;;;;;;5059673;28;20024;-76
2021/03/31 12:21:24;;;;;;;15.57;11.05;;;30.80;29.80;;;;;;5075105;28;20074;-76
2021/03/31 12:23:50;;;;;;;17.63;12.15;;;31.00;29.80;;;;;;5094621;28;20023;-76
2021/03/31 12:26:16;;;;;;;16.85;11.43;;;31.30;29.60;;;;;;5094046;28;20477;-76
2021/03/31 12:28:50;;;;;;;14.77;10.38;;;31.40;29.40;;;;;;5094095;28;20016;-76
2021/03/31 12:31:16;;;;;;;16.48;11.43;;;31.50;29.30;;;;;;5093872;28;20088;-76
2021/03/31 12:33:42;;;;;;;14.52;11.25;;;31.60;29.20;;;;;;5093541;28;20399;-76
2021/03/31 12:36:07;;;;;;;14.18;11.00;;;31.70;29.20;;;;;;5093573;28;20324;-76
2021/03/31 12:38:33;;;;;;;18.38;10.98;;;31.90;29.20;;;;;;5093627;28;20032;-76
2021/03/31 12:40:59;;;;;;;17.90;11.60;;;32.10;29.30;;;;;;5093628;28;20020;-76
2021/03/31 12:43:24;;;;;;;16.65;10.88;;;32.40;29.20;;;;;;5093782;28;20483;-75
2021/03/31 12:45:50;;;;;;;14.10;9.82;;;32.50;28.90;;;;;;5075476;28;20032;-76
2021/03/31 12:48:16;;;;;;;15.65;11.52;;;32.60;28.70;;;;;;5093636;28;20055;-76
2021/03/31 12:50:43;;;;;;;18.73;12.50;;;32.80;28.50;;;;;;5075352;28;20122;-75
2021/03/31 12:55:40;;;;;;;16.85;12.23;;;33.20;27.80;;;;;;5076337;28;20111;-75
2021/03/31 12:58:09;;;;;;;13.85;10.45;;;33.30;27.60;;;;;;5059285;28;20409;-75
2021/03/31 13:00:35;;;;;;;16.42;12.13;;;33.40;27.50;;;;;;5075098;28;20023;-75
2021/03/31 13:03:01;;;;;;;16.30;11.85;;;33.50;27.50;;;;;;5058407;28;20032;-75
2021/03/31 13:05:26;;;;;;;17.42;12.68;;;33.70;27.50;;;;;;5058467;28;20089;-75
2021/03/31 13:07:52;;;;;;;17.10;11.25;;;33.90;27.40;;;;;;5075116;28;20059;-75